Latest Coastal Weather Observations for Ballina

IDN60701

Issued at 2:21 am EST Monday 3 August 2015 (issued every 10 minutes, with the page automatically refreshed every 10 minutes)

About coastal observations | Map of coastal stations | Coastal observations for NSW | Marine services | Other Formats
Station Details ID: 058198 Name: BALLINA AIRPORT AWS Lat: -28.84 Lon: 153.56 Height: 1.3 m
Data from the previous 72 hours. | See also: Recent months at Ballina
Date/Time
EST
Temp

°C
Wind Pressure Rain
since 9am
mm
Weather Cloud Vis
km
Sea
Height
m
Swell
Dir
 
Speed
knots
Gust
knots
hPa Trend Height
m
Period
s
Dir
03/02:00am 15.0 N 6 9 1016.9 - 0.0 - - 10 - - - -
03/01:30am 15.3 N 6 8 1017.2 - 0.0 - - 10 - - - -
03/01:00am 15.4 N 6 8 1017.5 - 0.0 - - 10 - - - -
03/12:30am 15.4 NNE 6 8 1017.9 - 0.0 - - 10 - - - -
03/12:00am 15.6 N 7 9 1018.1 - 0.0 - - 10 - - - -
 
Date/Time
EST
Temp

°C
Wind Pressure Rain
since 9am
mm
Weather Cloud Vis
km
Sea
Height
m
Swell
Dir
 
Speed
knots
Gust
knots
hPa Trend Height
m
Period
s
Dir
02/11:30pm 15.8 N 6 8 1018.4 - 0.0 - - 10 - - - -
02/11:00pm 16.1 N 6 9 1018.7 - 0.0 - - 10 - - - -
02/10:30pm 16.4 N 7 9 1018.7 - 0.0 - - 10 - - - -
02/10:00pm 16.9 N 6 9 1018.6 - 0.0 - - 10 - - - -
02/09:30pm 17.1 N 6 8 1018.6 - 0.0 - - 10 - - - -
02/09:00pm 17.7 N 7 11 1018.6 - 0.0 - - 10 - - - -
02/08:30pm 18.2 N 9 13 1018.4 - 0.0 - - 10 - - - -
02/08:00pm 18.5 N 9 13 1018.4 - 0.0 - - 10 - - - -
02/07:30pm 18.7 N 10 14 1018.2 - 0.0 - - 10 - - - -
02/07:00pm 18.9 N 10 14 1018.2 - 0.0 - - 10 - - - -
02/06:30pm 19.0 N 9 14 1018.0 - 0.0 - - 10 - - - -
02/06:00pm 19.3 N 10 16 1017.7 - 0.0 - - 10 - - - -
02/05:30pm 19.6 N 11 16 1017.2 - 0.0 - - 10 - - - -
02/05:00pm 20.5 NNE 9 14 1017.0 - 0.0 - - 10 - - - -
02/04:30pm 21.5 NNE 10 15 1017.0 - 0.0 - - 10 - - - -
02/04:00pm 22.3 NNE 11 17 1017.0 - 0.0 - - 10 - - - -
02/03:30pm 22.8 N 13 19 1017.0 - 0.0 - - 10 - - - -
02/03:00pm 23.6 N 12 18 1017.1 - 0.0 - - 10 - - - -
02/02:30pm 23.8 NNE 12 16 1017.1 - 0.0 - - 10 - - - -
02/02:00pm 24.1 NNE 11 15 1017.3 - 0.0 - - 10 - - - -
02/01:30pm 25.0 N 9 12 1017.4 - 0.0 - - 10 - - - -
02/01:00pm 25.1 NNW 6 10 1018.0 - 0.0 - - 10 - - - -
02/12:30pm 24.9 NNW 7 11 1018.7 - 0.0 - - 10 - - - -
02/12:00pm 24.4 NNW 6 10 1019.2 - 0.0 - - 10 - - - -
02/11:30am 23.7 N 8 11 1019.7 - 0.0 - - 10 - - - -
02/11:00am 23.2 N 8 12 1020.2 - 0.0 - - 10 - - - -
02/10:30am 22.9 N 4 6 1020.7 - 0.0 - - 10 - - - -
02/10:00am 21.5 N 4 6 1021.0 - 0.0 - - 10 - - - -
02/09:30am 20.1 N 4 6 1021.2 - 0.0 - - 10 - - - -
02/09:00am 18.0 NNE 4 6 1021.2 - 0.0 - - 10 - - - -
02/08:30am 15.8 N 3 4 1021.2 - 0.0 - - 10 - - - -
02/08:00am 13.4 N 1 3 1021.1 - 0.0 - - 10 - - - -
02/07:30am 11.9 N 3 4 1021.1 - 0.0 - - 10 - - - -
02/07:00am 9.0 NE 5 5 1021.0 - 0.0 - - 10 - - - -
02/06:56am 8.6 NNE 4 5 1020.9 - 0.0 - - 10 - - - -
02/06:30am 7.4 CALM 0 0 1020.7 - 0.0 - - 0.6 - - - -
02/06:00am 8.5 CALM 0 0 1020.6 - 0.0 - - 2 - - - -
02/05:59am 8.5 CALM 0 0 1020.6 - 0.0 - - 2 - - - -
02/05:30am 9.0 CALM 0 0 1020.4 - 0.0 - - 10 - - - -
02/05:00am 8.9 CALM 0 0 1020.0 - 0.0 - - 10 - - - -
02/04:30am 9.4 CALM 0 0 1020.0 - 0.0 - - 10 - - - -
02/04:00am 9.7 NNW 1 3 1020.2 - 0.0 - - 10 - - - -
02/03:30am 10.3 NNW 3 3 1020.2 - 0.0 - - 10 - - - -
02/03:00am 10.1 CALM 0 0 1020.4 - 0.0 - - 10 - - - -
02/02:30am 10.7 CALM 0 0 1020.7 - 0.0 - - 10 - - - -
02/02:00am 11.2 N 1 3 1020.9 - 0.0 - - 10 - - - -
02/01:30am 11.9 N 3 4 1021.0 - 0.0 - - 10 - - - -
02/01:00am 12.0 N 4 6 1021.3 - 0.0 - - 10 - - - -
02/12:30am 12.2 N 5 6 1021.4 - 0.0 - - 10 - - - -
02/12:00am 12.0 N 4 5 1021.6 - 0.0 - - 10 - - - -
 
Date/Time
EST
Temp

°C
Wind Pressure Rain
since 9am
mm
Weather Cloud Vis
km
Sea
Height
m
Swell
Dir
 
Speed
knots
Gust
knots
hPa Trend Height
m
Period
s
Dir
01/11:30pm 12.5 N 4 6 1021.6 - 0.0 - - 10 - - - -
01/11:00pm 11.9 NNE 5 6 1021.5 - 0.0 - - 10 - - - -
01/10:30pm 12.3 CALM 0 0 1021.6 - 0.0 - - 10 - - - -
01/10:00pm 12.9 NNW 3 4 1021.5 - 0.0 - - 10 - - - -
01/09:30pm 13.4 NNW 1 3 1021.6 - 0.0 - - 10 - - - -
01/09:00pm 14.6 N 5 5 1021.7 - 0.0 - - 10 - - - -
01/08:30pm 15.8 N 8 10 1021.4 - 0.0 - - 10 - - - -
01/08:00pm 15.5 N 6 8 1021.2 - 0.0 - - 10 - - - -
01/07:30pm 15.7 NNE 6 8 1020.8 - 0.0 - - 10 - - - -
01/07:00pm 16.4 N 6 9 1020.5 - 0.0 - - 10 - - - -
01/06:30pm 16.9 NNE 7 9 1020.2 - 0.0 - - 10 - - - -
01/06:00pm 17.7 N 7 10 1019.9 - 0.0 - - 10 - - - -
01/05:30pm 18.6 N 8 11 1019.6 - 0.0 - - 10 - - - -
01/05:00pm 19.4 N 9 13 1019.5 - 0.0 - - 10 - - - -
01/04:30pm 20.5 NNE 9 13 1019.5 - 0.0 - - 10 - - - -
01/04:00pm 21.2 NNE 10 14 1019.5 - 0.0 - - 10 - - - -
01/03:30pm 21.6 NNE 11 15 1019.4 - 0.0 - - 10 - - - -
01/03:00pm 22.1 NNE 11 15 1019.5 - 0.0 - - 10 - - - -
01/02:30pm 22.4 NNE 10 15 1019.6 - 0.0 - - 10 - - - -
01/02:00pm 22.7 N 8 13 1020.0 - 0.0 - - 10 - - - -
01/01:30pm 22.8 NNE 8 14 1020.4 - 0.0 - - 10 - - - -
01/01:00pm 22.2 NE 10 13 1020.7 - 0.0 - - 10 - - - -
01/12:30pm 22.2 NE 10 16 1021.1 - 0.0 - - 10 - - - -
01/12:00pm 21.6 NE 11 15 1021.6 - 0.0 - - 10 - - - -
01/11:30am 21.3 NE 9 13 1022.2 - 0.0 - - 10 - - - -
01/11:00am 20.9 NE 9 13 1022.7 - 0.0 - - 10 - - - -
01/10:30am 20.5 N 7 10 1023.1 - 0.0 - - 10 - - - -
01/10:00am 19.7 N 4 6 1023.4 - 0.0 - - 10 - - - -
01/09:30am 18.0 NNW 3 5 1023.7 - 0.0 - - 10 - - - -
01/09:00am 15.6 CALM 0 0 1023.6 - 0.0 - - 10 - - - -
01/08:30am 13.3 CALM 0 0 1023.8 - 0.0 - - 10 - - - -
01/08:00am 11.6 CALM 0 3 1023.6 - 0.0 - - 10 - - - -
01/07:30am 9.3 CALM 0 0 1023.4 - 0.0 - - 10 - - - -
01/07:07am 7.8 CALM 0 0 1023.1 - 0.0 - - 10 - - - -
01/07:00am 7.3 CALM 0 0 1023.0 - 0.0 - - 9 - - - -
01/06:50am 7.2 CALM 0 0 1022.8 - 0.0 - - 5 - - - -
01/06:30am 7.0 CALM 0 0 1022.6 - 0.0 - - 10 - - - -
01/06:00am 6.7 CALM 0 0 1022.3 - 0.0 - - 8 - - - -
01/05:30am 7.2 CALM 0 0 1022.1 - 0.0 - - 8 - - - -
01/05:25am 7.2 CALM 0 0 1022.0 - 0.0 - - 8 - - - -
01/05:07am 7.0 CALM 0 0 1022.0 - 0.0 - - 5 - - - -
01/05:00am 7.3 CALM 0 0 1022.0 - 0.0 - - 10 - - - -
01/04:30am 7.3 CALM 0 0 1021.8 - 0.0 - - 10 - - - -
01/04:00am 7.8 CALM 0 0 1022.0 - 0.0 - - 10 - - - -
01/03:30am 7.7 CALM 0 0 1022.1 - 0.0 - - 10 - - - -
01/03:00am 7.8 CALM 0 0 1022.3 - 0.0 - - 10 - - - -
01/02:30am 8.3 CALM 0 0 1022.4 - 0.0 - - 10 - - - -
01/02:00am 8.4 CALM 0 0 1022.6 - 0.0 - - 10 - - - -
01/01:30am 8.4 CALM 0 0 1022.8 - 0.0 - - 10 - - - -
01/01:00am 8.9 CALM 0 0 1022.8 - 0.0 - - 10 - - - -
01/12:30am 9.1 CALM 0 0 1022.8 - 0.0 - - 10 - - - -
01/12:00am 9.0 CALM 0 0 1022.9 - 0.0 - - 10 - - - -
 
Date/Time
EST
Temp

°C
Wind Pressure Rain
since 9am
mm
Weather Cloud Vis
km
Sea
Height
m
Swell
Dir
 
Speed
knots
Gust
knots
hPa Trend Height
m
Period
s
Dir
31/11:30pm 9.3 CALM 0 0 1022.9 - 0.0 - - 10 - - - -
31/11:00pm 9.2 CALM 0 0 1022.8 - 0.0 - - 10 - - - -
31/10:30pm 9.6 CALM 0 0 1022.8 - 0.0 - - 10 - - - -
31/10:00pm 9.8 CALM 0 0 1022.9 - 0.0 - - 10 - - - -
31/09:30pm 10.0 CALM 0 0 1022.5 - 0.0 - - 10 - - - -
31/09:00pm 10.4 CALM 0 0 1022.5 - 0.0 - - 10 - - - -
31/08:30pm 10.9 CALM 0 0 1022.3 - 0.0 - - 10 - - - -
31/08:00pm 11.0 CALM 0 0 1021.8 - 0.0 - - 10 - - - -
31/07:30pm 11.5 CALM 0 0 1021.7 - 0.0 - - 10 - - - -
31/07:00pm 12.1 CALM 0 0 1021.4 - 0.0 - - 10 - - - -
31/06:30pm 13.3 CALM 0 0 1021.0 - 0.0 - - 10 - - - -
31/06:00pm 14.0 NNW 3 5 1020.7 - 0.0 - - 10 - - - -
31/05:30pm 15.2 ENE 3 5 1020.6 - 0.0 - - 10 - - - -
31/05:00pm 17.3 ESE 5 6 1020.3 - 0.0 - - 10 - - - -
31/04:30pm 18.9 SE 5 6 1019.8 - 0.0 - - 10 - - - -
31/04:00pm 20.2 SE 5 6 1020.0 - 0.0 - - 10 - - - -
31/03:30pm 20.5 SE 6 8 1020.0 - 0.0 - - 10 - - - -
31/03:00pm 20.6 SE 9 11 1020.2 - 0.0 - - 10 - - - -
31/02:30pm 21.0 SE 8 10 1020.3 - 0.0 - - 10 - - - -
31/02:00pm 21.4 SSE 8 13 1020.4 - 0.0 - - 10 - - - -
31/01:30pm 22.1 WSW 8 11 1020.5 - 0.0 - - 10 - - - -
31/01:00pm 21.4 WSW 7 12 1020.8 - 0.0 - - 10 - - - -
31/12:30pm 21.6 SW 7 11 1021.2 - 0.0 - - 10 - - - -
31/12:00pm 21.2 W 8 12 1021.4 - 0.0 - - 10 - - - -
31/11:30am 21.0 W 9 12 1022.1 - 0.0 - - 10 - - - -
31/11:00am 20.2 WNW 11 15 1022.6 - 0.0 - - 10 - - - -
31/10:30am 20.1 WNW 11 15 1022.7 - 0.0 - - 10 - - - -
31/10:00am 19.3 NW 11 16 1022.8 - 0.0 - - 10 - - - -
31/09:30am 18.5 NW 8 12 1023.0 - 0.0 - - 10 - - - -
31/09:00am 17.2 NW 8 11 1023.0 - 0.0 - Mostly cloudy 10 - - - -
31/08:30am 16.4 NW 5 6 1022.7 - 0.0 - - 10 - - - -
31/08:00am 13.4 CALM 0 3 1022.7 - 0.0 - - 10 - - - -
31/07:30am 11.4 NNW 1 4 1022.7 - 0.0 - - 10 - - - -
31/07:00am 9.6 NNW 3 4 1022.5 - 0.0 - - 10 - - - -
31/06:31am 9.7 N 4 6 1022.0 - 0.0 - - 10 - - - -
31/06:30am 9.7 N 4 6 1021.9 - 0.0 - - 10 - - - -
31/06:00am 10.2 NNW 1 3 1021.9 - 0.0 - - 3 - - - -
31/05:59am 10.1 NNW 1 3 1021.9 - 0.0 - - 4 - - - -
31/05:30am 10.5 NNW 4 5 1021.4 - 0.0 - - 10 - - - -
31/05:06am 10.0 CALM 0 2 1021.3 - 0.0 - - 5 - - - -
31/05:02am 9.9 CALM 0 0 1021.3 - 0.0 - - 10 - - - -
31/05:00am 10.1 CALM 0 0 1021.3 - 0.0 - - 10 - - - -
31/04:30am 10.9 CALM 0 0 1021.0 - 0.0 - - 5 - - - -
31/04:00am 12.3 N 5 5 1021.2 - 0.0 - - 10 - - - -
31/03:30am 12.7 N 6 7 1021.5 - 0.0 - - 10 - - - -
31/03:00am 12.9 N 6 8 1021.6 - 0.0 - - 10 - - - -
31/02:30am 12.9 N 6 7 1022.3 - 0.0 - - 10 - - - -

Other Formats:

Comma delimited format used in spreadsheet applications
http://www.bom.gov.au/fwo/IDN60701/IDN60701.94596.axf

JavaScript Object Notation format (JSON) in row-major order
http://www.bom.gov.au/fwo/IDN60701/IDN60701.94596.json